createdAt,value
2022-12-23T00:00:45.303Z,2.50
2022-12-23T00:03:30.942Z,2.17
2022-12-23T00:06:17.496Z,2.45
2022-12-23T00:09:03.500Z,1.30
2022-12-23T00:12:06.937Z,1.20
2022-12-23T00:15:07.071Z,0.90
2022-12-23T00:17:51.964Z,0.70
2022-12-23T00:20:37.032Z,0.98
2022-12-23T00:23:22.171Z,0.63
2022-12-23T00:26:08.165Z,0.77
2022-12-23T00:28:55.838Z,0.70
2022-12-23T00:31:40.859Z,0.60
2022-12-23T00:34:25.922Z,0.55
2022-12-23T00:37:11.045Z,0.60
2022-12-23T00:40:14.649Z,0.60
2022-12-23T00:43:01.007Z,0.73
2022-12-23T00:45:47.122Z,0.60
2022-12-23T00:48:50.570Z,0.52
2022-12-23T00:51:35.789Z,0.70
2022-12-23T00:54:20.600Z,0.50
2022-12-23T00:57:06.330Z,0.60
2022-12-23T00:59:51.380Z,0.63
2022-12-23T01:02:55.277Z,0.60
2022-12-23T01:05:40.400Z,0.80
2022-12-23T01:08:26.474Z,0.50
2022-12-23T01:11:12.382Z,0.50
2022-12-23T01:13:58.563Z,0.60
2022-12-23T01:16:44.741Z,0.35
2022-12-23T01:19:29.683Z,0.40
2022-12-23T01:22:14.523Z,0.50
2022-12-23T01:24:59.274Z,0.40
2022-12-23T01:27:44.148Z,0.40
2022-12-23T01:30:29.177Z,0.40
2022-12-23T01:33:14.229Z,0.50
2022-12-23T01:36:04.920Z,0.25
2022-12-23T01:38:50.321Z,0.50
2022-12-23T01:41:53.891Z,0.50
2022-12-23T01:45:14.029Z,0.40
2022-12-23T01:48:10.380Z,0.30
2022-12-23T01:51:02.607Z,0.30
2022-12-23T01:53:51.729Z,0.40
2022-12-23T01:56:39.387Z,0.40
2022-12-23T01:59:43.346Z,0.43
2022-12-23T02:02:50.162Z,0.40
2022-12-23T02:05:35.592Z,0.40
2022-12-23T02:08:39.125Z,0.30
2022-12-23T02:11:48.333Z,0.50
2022-12-23T02:15:10.521Z,0.50
2022-12-23T02:18:17.447Z,0.35
2022-12-23T02:21:37.400Z,0.47
2022-12-23T02:24:55.622Z,0.40
2022-12-23T02:28:08.474Z,1.20
2022-12-23T02:31:03.910Z,0.80
2022-12-23T02:34:18.749Z,0.40
2022-12-23T02:37:18.824Z,1.30
2022-12-23T02:40:09.410Z,0.77
2022-12-23T02:43:04.925Z,1.40
2022-12-23T02:46:13.892Z,0.95
2022-12-23T02:49:06.552Z,1.27
2022-12-23T02:51:54.612Z,1.05
2022-12-23T02:54:48.795Z,1.50
2022-12-23T02:57:37.279Z,1.50
2022-12-23T03:00:23.115Z,1.40
2022-12-23T03:03:08.615Z,0.47
2022-12-23T03:05:54.693Z,1.40
2022-12-23T03:08:43.835Z,1.40
2022-12-23T03:11:39.981Z,1.40
2022-12-23T03:14:36.460Z,0.60
2022-12-23T03:17:52.397Z,1.20
2022-12-23T03:21:01.690Z,0.70
2022-12-23T03:24:19.480Z,1.20
2022-12-23T03:27:18.841Z,1.07
2022-12-23T03:30:09.795Z,1.00
2022-12-23T03:33:04.344Z,1.00
2022-12-23T03:35:55.331Z,0.85
2022-12-23T03:38:43.680Z,1.10
2022-12-23T03:41:35.344Z,0.80
2022-12-23T03:44:26.262Z,1.13
2022-12-23T03:47:23.996Z,0.77
2022-12-23T03:50:12.516Z,0.80
2022-12-23T03:53:02.964Z,0.75
2022-12-23T03:55:56.630Z,0.80
2022-12-23T03:59:02.715Z,0.90
2022-12-23T04:02:03.637Z,0.50
2022-12-23T04:05:11.751Z,0.57
2022-12-23T04:08:44.949Z,0.65
2022-12-23T04:11:29.888Z,0.70
2022-12-23T04:14:19.417Z,0.70
2022-12-23T04:17:04.689Z,0.82
2022-12-23T04:19:52.930Z,0.80
2022-12-23T04:22:39.414Z,0.73
2022-12-23T04:25:24.379Z,0.47
2022-12-23T04:28:09.307Z,0.82
2022-12-23T04:30:54.217Z,0.75
2022-12-23T04:33:39.336Z,0.75
2022-12-23T04:36:24.133Z,0.82
2022-12-23T04:39:09.756Z,0.77
2022-12-23T04:41:54.745Z,0.60
2022-12-23T04:44:39.932Z,0.80
2022-12-23T04:47:25.230Z,0.45
2022-12-23T04:50:14.614Z,0.88
2022-12-23T04:52:59.614Z,0.80
2022-12-23T04:55:49.222Z,0.70
2022-12-23T04:58:34.560Z,0.55
2022-12-23T05:01:19.432Z,0.68
2022-12-23T05:04:04.783Z,0.65
2022-12-23T05:06:51.028Z,0.80
2022-12-23T05:09:35.955Z,0.80
2022-12-23T05:12:20.777Z,0.73
2022-12-23T05:15:06.203Z,0.85
2022-12-23T05:17:51.235Z,0.75
2022-12-23T05:20:36.486Z,0.63
2022-12-23T05:23:21.658Z,0.70
2022-12-23T05:26:06.804Z,0.90
2022-12-23T05:28:51.877Z,0.98
2022-12-23T05:31:36.943Z,0.82
2022-12-23T05:34:22.136Z,0.90
2022-12-23T05:37:07.448Z,0.75
2022-12-23T05:39:52.677Z,0.82
2022-12-23T05:42:37.785Z,0.90
2022-12-23T05:45:22.775Z,1.15
2022-12-23T05:48:08.213Z,0.90
2022-12-23T05:50:53.592Z,0.73
2022-12-23T05:53:38.628Z,1.00
2022-12-23T05:56:23.667Z,0.68
2022-12-23T05:59:08.819Z,0.77
2022-12-23T06:01:54.404Z,0.67
2022-12-23T06:04:39.507Z,0.80
2022-12-23T06:07:24.372Z,0.90
2022-12-23T06:10:10.697Z,0.75
2022-12-23T06:12:56.514Z,0.80
2022-12-23T06:15:41.535Z,1.07
2022-12-23T06:18:26.267Z,1.10
2022-12-23T06:21:11.331Z,0.90
2022-12-23T06:23:56.017Z,0.77
2022-12-23T06:26:42.371Z,0.70
2022-12-23T06:29:27.632Z,0.77
2022-12-23T06:32:12.762Z,0.70
2022-12-23T06:34:57.957Z,0.90
2022-12-23T06:37:43.177Z,0.50
2022-12-23T06:40:29.118Z,0.82
2022-12-23T06:43:13.932Z,0.80
2022-12-23T06:45:59.164Z,0.88
2022-12-23T06:48:44.320Z,0.60
2022-12-23T06:51:29.589Z,0.60
2022-12-23T06:54:14.539Z,0.63
2022-12-23T06:56:59.513Z,0.70
2022-12-23T06:59:44.342Z,0.88
2022-12-23T07:02:29.519Z,0.88
2022-12-23T07:05:14.899Z,0.70
2022-12-23T07:07:59.900Z,0.80
2022-12-23T07:10:45.540Z,0.90
2022-12-23T07:13:32.714Z,0.80
2022-12-23T07:16:17.848Z,0.90
2022-12-23T07:19:02.984Z,0.68
2022-12-23T07:21:47.925Z,0.80
2022-12-23T07:24:32.880Z,0.90
2022-12-23T07:27:18.029Z,0.80
2022-12-23T07:30:03.651Z,0.88
2022-12-23T07:32:49.798Z,0.90
2022-12-23T07:35:34.597Z,1.02
2022-12-23T07:38:19.707Z,1.00
2022-12-23T07:41:04.918Z,0.82
2022-12-23T07:43:49.971Z,0.90
2022-12-23T07:46:34.890Z,0.50
2022-12-23T07:49:20.033Z,0.90
2022-12-23T07:52:05.151Z,0.80
2022-12-23T07:54:50.102Z,0.90
2022-12-23T07:57:37.799Z,0.60
2022-12-23T08:00:22.836Z,0.68
2022-12-23T08:03:08.259Z,0.80
2022-12-23T08:06:05.119Z,1.00
2022-12-23T08:08:49.805Z,0.70
2022-12-23T08:11:34.841Z,0.80
2022-12-23T08:14:19.837Z,0.70
2022-12-23T08:17:05.334Z,0.80
2022-12-23T08:19:50.382Z,0.60
2022-12-23T08:22:35.212Z,0.75
2022-12-23T08:25:20.093Z,0.50
2022-12-23T08:28:05.097Z,0.85
2022-12-23T08:30:49.947Z,0.60
2022-12-23T08:33:36.609Z,0.80
2022-12-23T08:36:31.106Z,0.90
2022-12-23T08:39:18.531Z,1.08
2022-12-23T08:42:03.528Z,1.38
2022-12-23T08:44:48.838Z,4.65
2022-12-23T08:47:34.117Z,2.60
2022-12-23T08:50:19.888Z,2.28
2022-12-23T08:53:05.932Z,1.50
2022-12-23T08:55:50.899Z,1.10
2022-12-23T08:58:37.933Z,1.17
2022-12-23T09:01:26.053Z,1.43
2022-12-23T09:04:11.036Z,1.33
2022-12-23T09:06:56.114Z,1.10
2022-12-23T09:09:41.305Z,1.30
2022-12-23T09:12:26.534Z,1.10
2022-12-23T09:15:12.096Z,1.43
2022-12-23T09:17:56.957Z,1.20
2022-12-23T09:20:42.049Z,1.00
2022-12-23T09:23:27.609Z,1.52
2022-12-23T09:26:20.835Z,1.45
2022-12-23T09:29:05.994Z,2.10
2022-12-23T09:31:51.121Z,1.98
2022-12-23T09:34:36.180Z,1.88
2022-12-23T09:37:21.240Z,1.83
2022-12-23T09:40:07.266Z,1.98
2022-12-23T09:43:09.754Z,2.10
2022-12-23T09:46:15.584Z,2.00
2022-12-23T09:49:10.998Z,1.98
2022-12-23T09:52:03.149Z,2.47
2022-12-23T09:54:52.442Z,2.05
2022-12-23T09:57:50.901Z,1.90
2022-12-23T10:00:45.205Z,2.25
2022-12-23T10:03:42.865Z,2.17
2022-12-23T10:06:29.254Z,2.30
2022-12-23T10:09:17.268Z,2.28
2022-12-23T10:12:11.082Z,2.50
2022-12-23T10:15:00.824Z,2.63
2022-12-23T10:17:46.562Z,3.10
2022-12-23T10:21:01.522Z,2.80
2022-12-23T10:23:51.020Z,3.22
2022-12-23T10:26:45.363Z,3.57
2022-12-23T10:29:31.941Z,3.08
2022-12-23T10:32:17.274Z,3.60
2022-12-23T10:35:15.600Z,3.17
2022-12-23T10:38:28.508Z,3.70
2022-12-23T10:41:33.899Z,3.67
2022-12-23T10:44:41.315Z,3.20
2022-12-23T10:47:50.554Z,2.80
2022-12-23T10:50:51.060Z,3.17
2022-12-23T10:53:43.934Z,3.13
2022-12-23T10:56:30.721Z,2.87
2022-12-23T10:59:20.506Z,3.63
2022-12-23T11:02:23.393Z,3.47
2022-12-23T11:05:16.854Z,2.90
2022-12-23T11:08:02.335Z,2.92
2022-12-23T11:10:48.529Z,2.63
2022-12-23T11:13:40.422Z,2.55
2022-12-23T11:16:28.397Z,2.42
2022-12-23T11:19:16.784Z,2.10
2022-12-23T11:22:02.176Z,2.30
2022-12-23T11:24:47.388Z,2.60
2022-12-23T11:27:32.967Z,2.50
2022-12-23T11:30:19.055Z,2.60
2022-12-23T11:33:04.564Z,2.20
2022-12-23T11:36:00.426Z,2.60
2022-12-23T11:39:02.110Z,2.93
2022-12-23T11:41:50.677Z,2.45
2022-12-23T11:44:45.959Z,2.28
2022-12-23T11:47:41.536Z,1.92
2022-12-23T11:50:36.969Z,2.35
2022-12-23T11:53:24.305Z,1.50
2022-12-23T11:56:13.472Z,1.42
2022-12-23T11:59:07.668Z,1.27
2022-12-23T12:01:53.623Z,1.48
2022-12-23T12:04:41.135Z,1.08
2022-12-23T12:07:26.960Z,1.13
2022-12-23T12:10:42.369Z,1.00
2022-12-23T12:13:41.656Z,1.30
2022-12-23T12:16:55.766Z,1.20
2022-12-23T12:19:53.621Z,1.05
2022-12-23T12:22:49.200Z,0.90
2022-12-23T12:25:44.119Z,1.05
2022-12-23T12:28:34.931Z,1.35
2022-12-23T12:31:34.238Z,1.70
2022-12-23T12:34:53.453Z,1.50
2022-12-23T12:37:48.121Z,2.37
2022-12-23T12:40:44.699Z,2.20
2022-12-23T12:43:46.357Z,2.38
2022-12-23T12:46:59.657Z,2.30
2022-12-23T12:49:56.907Z,1.88
2022-12-23T12:52:42.860Z,3.07
2022-12-23T12:55:37.705Z,3.47
2022-12-23T12:58:24.294Z,2.85
2022-12-23T13:01:37.492Z,2.35
2022-12-23T13:04:41.962Z,1.90
2022-12-23T13:07:29.648Z,1.80
2022-12-23T13:10:45.359Z,1.90
2022-12-23T13:13:48.265Z,1.83
2022-12-23T13:17:01.559Z,1.25
2022-12-23T13:19:52.607Z,1.77
2022-12-23T13:22:38.520Z,1.57
2022-12-23T13:25:41.124Z,2.03
2022-12-23T13:28:29.289Z,1.63
2022-12-23T13:31:33.226Z,2.13
2022-12-23T13:34:40.433Z,2.45
2022-12-23T13:37:36.105Z,2.90
2022-12-23T13:40:29.352Z,3.33
2022-12-23T13:43:18.811Z,3.35
2022-12-23T13:46:21.664Z,2.70
2022-12-23T13:49:24.750Z,3.45
2022-12-23T13:52:15.800Z,2.17
2022-12-23T13:55:24.204Z,3.33
2022-12-23T13:58:18.592Z,3.47
2022-12-23T14:01:09.273Z,3.15
2022-12-23T14:03:54.134Z,2.97
2022-12-23T14:06:38.821Z,3.50
2022-12-23T14:09:36.927Z,2.15
2022-12-23T14:12:37.135Z,2.08
2022-12-23T14:15:42.388Z,3.05
2022-12-23T14:18:50.717Z,2.40
2022-12-23T14:21:57.749Z,3.63
2022-12-23T14:25:04.380Z,2.63
2022-12-23T14:28:18.817Z,2.60
2022-12-23T14:31:05.305Z,2.08
2022-12-23T14:33:51.256Z,1.38
2022-12-23T14:36:36.238Z,2.57
2022-12-23T14:39:31.303Z,3.65
2022-12-23T14:42:40.349Z,2.35
2022-12-23T14:45:35.900Z,2.72
2022-12-23T14:48:36.127Z,3.70
2022-12-23T14:51:39.333Z,3.97
2022-12-23T14:54:39.352Z,2.17
2022-12-23T14:57:28.518Z,2.85
2022-12-23T15:00:13.451Z,2.85
2022-12-23T15:03:00.660Z,3.40
2022-12-23T15:05:46.196Z,4.97
2022-12-23T15:08:36.564Z,6.78
2022-12-23T15:11:29.531Z,15.80
2022-12-23T15:14:28.320Z,13.77
2022-12-23T15:17:28.383Z,4.95
2022-12-23T15:20:18.510Z,4.10
2022-12-23T15:23:30.176Z,2.80
2022-12-23T15:26:15.236Z,2.53
2022-12-23T15:29:01.066Z,2.60
2022-12-23T15:31:50.400Z,1.40
2022-12-23T15:34:35.229Z,1.60
2022-12-23T15:37:29.204Z,1.35
2022-12-23T15:40:31.910Z,1.90
2022-12-23T15:43:23.778Z,0.93
2022-12-23T15:46:16.103Z,0.98
2022-12-23T15:49:01.812Z,0.70
2022-12-23T15:52:18.100Z,0.75
2022-12-23T15:55:23.761Z,0.43
2022-12-23T15:58:17.817Z,0.70
2022-12-23T16:01:03.653Z,0.70
2022-12-23T16:03:52.672Z,0.60
2022-12-23T16:06:38.919Z,0.70
2022-12-23T16:09:31.933Z,0.50
2022-12-23T16:12:23.657Z,0.50
2022-12-23T16:15:29.719Z,0.32
2022-12-23T16:18:24.164Z,0.40
2022-12-23T16:21:13.787Z,0.60
2022-12-23T16:23:59.867Z,0.75
2022-12-23T16:26:44.908Z,0.55
2022-12-23T16:29:33.352Z,0.60
2022-12-23T16:32:19.342Z,0.50
2022-12-23T16:35:12.432Z,0.57
2022-12-23T16:38:09.841Z,0.60
2022-12-23T16:40:56.646Z,0.30
2022-12-23T16:43:49.422Z,0.47
2022-12-23T16:46:41.905Z,0.33
2022-12-23T16:49:33.418Z,0.57
2022-12-23T16:52:19.070Z,0.60
2022-12-23T16:55:12.849Z,0.50
2022-12-23T16:57:57.574Z,0.50
2022-12-23T17:00:42.616Z,1.03
2022-12-23T17:03:27.850Z,0.93
2022-12-23T17:06:14.905Z,1.35
2022-12-23T17:08:59.837Z,1.00
2022-12-23T17:11:48.438Z,1.30
2022-12-23T17:14:33.341Z,1.00
2022-12-23T17:17:18.562Z,1.00
2022-12-23T17:20:04.025Z,0.98
2022-12-23T17:22:52.313Z,0.82
2022-12-23T17:25:36.928Z,0.60
2022-12-23T17:28:23.140Z,0.80
2022-12-23T17:31:14.196Z,0.90
2022-12-23T17:34:01.689Z,0.85
2022-12-23T17:36:50.420Z,0.90
2022-12-23T17:39:35.896Z,1.10
2022-12-23T17:42:25.825Z,1.20
2022-12-23T17:45:31.750Z,0.98
2022-12-23T17:48:20.822Z,1.30
2022-12-23T17:51:15.520Z,1.08
2022-12-23T17:54:00.558Z,1.30
2022-12-23T17:56:45.505Z,1.60
2022-12-23T17:59:30.401Z,1.17
2022-12-23T18:02:21.129Z,1.67
2022-12-23T18:05:20.331Z,1.23
2022-12-23T18:08:05.237Z,0.73
2022-12-23T18:10:50.216Z,1.47
2022-12-23T18:13:36.156Z,1.25
2022-12-23T18:16:21.312Z,1.10
2022-12-23T18:19:15.157Z,1.48
2022-12-23T18:22:00.229Z,1.60
2022-12-23T18:24:46.575Z,1.30
2022-12-23T18:27:31.418Z,1.60
2022-12-23T18:30:17.767Z,1.23
2022-12-23T18:33:02.626Z,1.63
2022-12-23T18:35:49.528Z,1.30
2022-12-23T18:38:34.312Z,1.07
2022-12-23T18:41:20.924Z,1.13
2022-12-23T18:44:06.166Z,0.95
2022-12-23T18:46:51.286Z,0.70
2022-12-23T18:49:37.179Z,1.25
2022-12-23T18:52:21.935Z,1.10
2022-12-23T18:55:07.391Z,1.98
2022-12-23T18:57:52.525Z,1.00
2022-12-23T19:00:37.651Z,0.95
2022-12-23T19:03:25.757Z,1.50
2022-12-23T19:06:16.281Z,1.80
2022-12-23T19:09:01.484Z,1.08
2022-12-23T19:11:48.111Z,1.48
2022-12-23T19:14:33.318Z,1.42
2022-12-23T19:17:18.172Z,1.13
2022-12-23T19:20:04.565Z,1.43
2022-12-23T19:22:49.554Z,1.17
2022-12-23T19:25:34.537Z,1.05
2022-12-23T19:28:20.024Z,1.35
2022-12-23T19:31:13.005Z,1.08
2022-12-23T19:33:59.617Z,1.40
2022-12-23T19:36:44.765Z,1.30
2022-12-23T19:39:29.707Z,0.80
2022-12-23T19:42:14.778Z,1.85
2022-12-23T19:45:00.563Z,1.50
2022-12-23T19:47:45.381Z,0.97
2022-12-23T19:50:30.484Z,1.30
2022-12-23T19:53:15.634Z,1.63
2022-12-23T19:56:06.995Z,1.20
2022-12-23T19:58:51.896Z,0.95
2022-12-23T20:01:36.973Z,1.07
2022-12-23T20:04:24.765Z,1.40
2022-12-23T20:07:09.980Z,1.10
2022-12-23T20:09:54.808Z,0.95
2022-12-23T20:12:40.004Z,0.60
2022-12-23T20:15:25.176Z,1.07
2022-12-23T20:18:10.376Z,1.40
2022-12-23T20:20:55.722Z,1.45
2022-12-23T20:23:40.951Z,0.75
2022-12-23T20:26:27.561Z,1.42
2022-12-23T20:29:12.568Z,0.83
2022-12-23T20:31:57.601Z,1.48
2022-12-23T20:34:42.462Z,0.80
2022-12-23T20:37:27.592Z,0.80
2022-12-23T20:40:14.462Z,0.90
2022-12-23T20:42:59.505Z,0.83
2022-12-23T20:45:46.197Z,1.33
2022-12-23T20:48:34.497Z,1.00
2022-12-23T20:51:23.697Z,1.33
2022-12-23T20:54:09.154Z,1.40
2022-12-23T20:56:54.405Z,1.00
2022-12-23T20:59:39.469Z,1.90
2022-12-23T21:02:25.229Z,1.30
2022-12-23T21:05:10.248Z,0.70
2022-12-23T21:07:55.391Z,0.60
2022-12-23T21:10:40.533Z,1.20
2022-12-23T21:13:25.561Z,1.08
2022-12-23T21:16:12.876Z,1.20
2022-12-23T21:18:58.869Z,1.08
2022-12-23T21:21:44.499Z,1.13
2022-12-23T21:24:29.610Z,0.60
2022-12-23T21:27:14.783Z,1.25
2022-12-23T21:29:59.898Z,1.42
2022-12-23T21:32:44.630Z,1.02
2022-12-23T21:35:29.504Z,0.95
2022-12-23T21:38:14.665Z,1.67
2022-12-23T21:41:01.671Z,0.70
2022-12-23T21:43:47.981Z,1.17
2022-12-23T21:46:33.190Z,0.73
2022-12-23T21:49:19.502Z,1.52
2022-12-23T21:52:04.500Z,0.87
2022-12-23T21:54:49.626Z,0.60
2022-12-23T21:57:34.795Z,1.77
2022-12-23T22:00:20.067Z,1.55
2022-12-23T22:03:05.118Z,1.30
2022-12-23T22:05:50.114Z,1.43
2022-12-23T22:08:35.428Z,1.30
2022-12-23T22:11:23.220Z,1.17
2022-12-23T22:14:12.310Z,1.23
2022-12-23T22:16:57.418Z,0.77
2022-12-23T22:19:42.391Z,1.37
2022-12-23T22:22:27.485Z,0.80
2022-12-23T22:25:12.576Z,0.75
2022-12-23T22:27:57.400Z,1.48
2022-12-23T22:30:42.511Z,0.80
2022-12-23T22:33:27.654Z,1.50
2022-12-23T22:36:14.968Z,1.10
2022-12-23T22:39:01.824Z,0.98
2022-12-23T22:41:46.917Z,1.00
2022-12-23T22:44:31.970Z,1.33
2022-12-23T22:47:16.985Z,1.37
2022-12-23T22:50:02.175Z,0.57
2022-12-23T22:52:47.209Z,1.23
2022-12-23T22:55:32.386Z,1.13
2022-12-23T22:58:17.509Z,1.05
2022-12-23T23:01:02.617Z,1.50
2022-12-23T23:03:50.879Z,0.70
2022-12-23T23:06:38.378Z,1.17
2022-12-23T23:09:23.248Z,1.35
2022-12-23T23:12:08.322Z,1.20
2022-12-23T23:14:53.278Z,0.70
2022-12-23T23:17:38.360Z,1.10
2022-12-23T23:20:23.525Z,1.92
2022-12-23T23:23:08.449Z,1.08
2022-12-23T23:25:53.514Z,0.60
2022-12-23T23:28:39.850Z,1.87
2022-12-23T23:31:41.928Z,1.35
2022-12-23T23:34:28.143Z,1.60
2022-12-23T23:37:14.026Z,1.30
2022-12-23T23:39:59.046Z,1.13
2022-12-23T23:42:44.222Z,1.23
2022-12-23T23:45:30.153Z,2.05
2022-12-23T23:48:16.038Z,1.08
2022-12-23T23:51:05.944Z,0.57
2022-12-23T23:53:50.989Z,0.93
2022-12-23T23:56:38.555Z,2.13
2022-12-23T23:59:23.894Z,1.30
